• Join FlightAware (Why Join?)
  • Login
  • US Flag 
09:33PM EDT


 

Airport Tracker/Info


-or-


 

Live Flight TrackerFlight Track Log ✈ KAP927 ✈ 23-Jan-2014 ✈ KALB - KOGS

Flight Track Log - Related Links

Times and Time Zones

All times are in EST time to prevent confusion due to time zone crossing. See the KAP927 flight status page for this flight to view local times or setup timezone preferences in your user account.

Time Position Orientation Groundspeed Altitude Reporting Facility
EST Latitude Longitude Course Direction KTS MPH feet Rate Location/Type
06:43PM 42.7628 -73.8567 350° North 101 116 1,800  Level Boston Center
06:44PM 42.7708 -73.8628 331° Northwest 102 117 2,100 660 Climbing Boston Center
06:44PM 42.7867 -73.8792 323° Northwest 103 119 2,500 600 Climbing Boston Center
06:45PM 42.7939 -73.8883 317° Northwest 104 120 2,700 540 Climbing Boston Center
06:45PM 42.8078 -73.9039 321° Northwest 106 122 3,100 540 Climbing Boston Center
06:46PM 42.8167 -73.9136 321° Northwest 104 120 3,300 660 Climbing Boston Center
06:46PM 42.8306 -73.9322 316° Northwest 111 128 3,800 720 Climbing Boston Center
06:47PM 42.8414 -73.9378 339° North 107 123 4,100 720 Climbing Boston Center
06:47PM 42.8619 -73.9369 North 117 135 4,600 780 Climbing Boston Center
06:48PM 42.8764 -73.9350 North 114 131 4,900 780 Climbing Boston Center
06:48PM 42.8942 -73.9364 357° North 117 135 5,400 720 Climbing Boston Center
06:49PM 42.9841 -73.9975 350° North  Level Estimated
06:49PM 42.9081 -73.9342 North 114 131 5,700  Level Boston Center
06:49PM 42.9267 -73.9356 357° North 115 132 6,100 660 Climbing Boston Center
06:50PM 42.9406 -73.9353 North 115 132 6,400 660 Climbing Boston Center
06:50PM 42.9636 -73.9336 North 118 136 6,900 480 Climbing Boston Center
06:51PM 42.9747 -73.9342 358° North 117 135 6,900 60 Level Boston Center
06:51PM 43.0019 -73.9350 359° North 134 154 7,000 60 Climbing Boston Center
06:52PM 43.0136 -73.9328 North 138 159 7,000  Level Boston Center
06:52PM 43.0453 -73.9322 North 157 181 7,000  Level Boston Center
06:53PM 43.0611 -73.9311 North 155 178 7,000  Level Boston Center
06:53PM 43.0883 -73.9325 358° North 164 189 7,000  Level Boston Center
06:54PM 43.1064 -73.9311 North 159 183 7,000  Level Boston Center
06:54PM 43.1314 -73.9325 358° North 162 186 7,000  Level Boston Center
06:55PM 43.1494 -73.9311 North 157 181 7,000  Level Boston Center
06:56PM 43.1889 -73.9306 North 145 167 7,000  Level Boston Center
06:57PM 43.2300 -73.9303 360° North 138 159 7,000  Level Boston Center
06:58PM 43.2692 -73.9281 North 140 161 7,000  Level Boston Center
06:59PM 43.3092 -73.9347 353° North 143 165 7,000  Level Boston Center
07:00PM 43.3486 -73.9436 351° North 143 165 7,000  Level Boston Center
07:01PM 43.3856 -73.9744 329° Northwest 147 169 7,000  Level Boston Center
07:02PM 43.4139 -74.0081 319° Northwest 138 159 7,000  Level Boston Center
07:03PM 43.4436 -74.0403 322° Northwest 138 159 7,000  Level Boston Center
07:04PM 43.4728 -74.0725 321° Northwest 138 159 7,000  Level Boston Center
07:05PM 43.5019 -74.1053 321° Northwest 137 158 7,100  Climbing Boston Center
07:06PM 43.5325 -74.1383 322° Northwest 138 159 7,100  Level Boston Center
07:07PM 43.5636 -74.1731 321° Northwest 142 163 7,100  Level Boston Center
07:08PM 43.5953 -74.2086 321° Northwest 142 163 7,100  Level Boston Center
07:09PM 43.6261 -74.2422 322° Northwest 143 165 7,100  Level Boston Center
07:10PM 43.6603 -74.2828 319° Northwest 142 163 7,100  Level Boston Center
07:11PM 43.6897 -74.3156 321° Northwest 141 162 7,100 -60 Level Boston Center
07:12PM 43.7194 -74.3486 321° Northwest 141 162 7,000 -60 Descending Boston Center
07:13PM 43.7503 -74.3839 320° Northwest 141 162 7,000  Level Boston Center
07:14PM 43.7792 -74.4172 320° Northwest 141 162 7,000  Level Boston Center
07:15PM 43.8097 -74.4506 322° Northwest 141 162 7,000  Level Boston Center
07:16PM 43.8397 -74.4839 321° Northwest 141 162 7,000  Level Boston Center
07:17PM 43.8689 -74.5183 320° Northwest 141 162 7,000  Level Boston Center
07:18PM 43.8989 -74.5528 320° Northwest 141 162 7,000  Level Boston Center
07:19PM 43.9283 -74.5867 320° Northwest 140 161 7,000  Level Boston Center
07:20PM 43.9647 -74.6278 321° Northwest 140 161 7,000  Level Boston Center
07:21PM 43.9961 -74.6628 321° Northwest 140 161 7,000  Level Boston Center
07:22PM 44.0261 -74.6981 320° Northwest 141 162 7,000  Level Boston Center
07:23PM 44.0564 -74.7328 321° Northwest 141 162 7,000  Level Boston Center
07:24PM 44.0858 -74.7683 319° Northwest 141 162 7,000  Level Boston Center
07:25PM 44.1156 -74.8008 322° Northwest 141 162 7,000  Level Boston Center
07:26PM 44.1450 -74.8350 320° Northwest 140 161 7,000  Level Boston Center
07:27PM 44.1736 -74.8686 320° Northwest 138 159 7,000  Level Boston Center
07:28PM 44.2033 -74.9036 320° Northwest 138 159 7,000 -180 Level Boston Center
07:29PM 44.2353 -74.9383 322° Northwest 139 160 6,700 -360 Descending Boston Center
07:30PM 44.2694 -74.9739 323° Northwest 147 169 6,300 -360 Descending Boston Center
07:32PM 44.3103 -75.0203 321° Northwest 153 176 6,000 -360 Descending Boston Center
07:33PM 44.3458 -75.0561 324° Northwest 154 177 5,600 -480 Descending Boston Center
07:34PM 44.3817 -75.0947 322° Northwest 157 181 5,100 -540 Descending Boston Center
07:35PM 44.4172 -75.1292 325° Northwest 157 181 4,600 -540 Descending Boston Center
07:36PM 44.4531 -75.1692 321° Northwest 158 182 4,100 -540 Descending Boston Center
07:37PM 44.4889 -75.2050 325° Northwest 158 182 3,600 -540 Descending Boston Center